Greifswald — 3FEC8 — position and weather

sailwx.info

Track history (hours):
 
Tides and Currents Weather Stations Pressure Air Temp Water Temp Dewpoint Dewpoint Depression Visibility Wind Speed Wind Dir Waves Ship Positions

Greifswald

Last reported at 2016-Apr-27 02:33 UTC. Time now 2016-Apr-29 21:45 UTC.
Position N 46°17' E 030°52'.

Length 191 m; draft 6.1 m.

Type: Ship. MMSI: 370492000.

Date/timePositionNaut miles runAvg speedWind from/ knotsBaromVisibWave heightAir tempDewpointWater temp
2016-Apr-27 02:33N 46°17' E 030°52'12711.3
2016-Apr-26 15:20N 44°44' E 032°56'6 7.3
2016-Apr-26 14:34N 44°40' E 033°01'6 5.7
2016-Apr-26 13:33N 44°36' E 033°06'6 6.4
2016-Apr-26 12:34N 44°31' E 033°12'7 6.8
2016-Apr-26 11:34N 44°26' E 033°19'268 7.9
2016-Apr-25 01:33N 42°33' E 038°53'  
2016-Apr-21 07:19N 44°19' E 033°23'1013.4
2016-Apr-21 06:33N 44°27' E 033°14'1313.3
2016-Apr-21 05:33N 44°36' E 033°01'12913.6
2016-Apr-20 20:05N 46°12' E 030°58'7 0.2
2016-Apr-19 16:12N 46°17' E 030°53'19811.2
2016-Apr-18 22:34N 43°60' E 034°16'1211.5
2016-Apr-18 21:34N 43°55' E 034°31'1111.3
2016-Apr-18 20:34N 43°51' E 034°45'1111.2
2016-Apr-18 19:33N 43°46' E 034°59'1111.3
2016-Apr-18 18:34N 43°42' E 035°14'2411.5
2016-Apr-18 16:27N 43°32' E 035°44'1211.7
2016-Apr-18 15:25N 43°28' E 035°60'1011.9
2016-Apr-18 14:34N 43°23' E 036°13'1412.0
2016-Apr-18 13:26N 43°18' E 036°30'2211.9
2016-Apr-18 11:33N 43°09' E 036°58'1411.4
2016-Apr-18 10:18N 43°04' E 037°16'811.3
2016-Apr-18 09:33N 43°00' E 037°26'18 8.5
2016-Apr-18 07:30N 42°53' E 037°48'1111.7
2016-Apr-18 06:33N 42°49' E 038°02'3812.2
2016-Apr-18 03:27N 42°34' E 038°50'1112.5
2016-Apr-18 02:33N 42°30' E 039°04'2512.3
2016-Apr-18 00:33N 42°20' E 039°34'  
Track history (hours):
 
Tides and Currents Weather Stations Pressure Air Temp Water Temp Dewpoint Dewpoint Depression Visibility Wind Speed Wind Dir Waves Ship Positions

Greifswald

Last reported at 2016-Apr-27 02:33 UTC. Time now 2016-Apr-29 21:45 UTC.
Position N 46°17' E 030°52'.

Length 191 m; draft 6.1 m.

Type: Ship. MMSI: 370492000.

Date/timePositionNaut miles runAvg speedWind from/ knotsBaromVisibWave heightAir tempDewpointWater temp
2016-Apr-27 02:33N 46°17' E 030°52'12711.3
2016-Apr-26 15:20N 44°44' E 032°56'6 7.3
2016-Apr-26 14:34N 44°40' E 033°01'6 5.7
2016-Apr-26 13:33N 44°36' E 033°06'6 6.4
2016-Apr-26 12:34N 44°31' E 033°12'7 6.8
2016-Apr-26 11:34N 44°26' E 033°19'268 7.9
2016-Apr-25 01:33N 42°33' E 038°53'  
2016-Apr-21 07:19N 44°19' E 033°23'1013.4
2016-Apr-21 06:33N 44°27' E 033°14'1313.3
2016-Apr-21 05:33N 44°36' E 033°01'12913.6
2016-Apr-20 20:05N 46°12' E 030°58'7 0.2
2016-Apr-19 16:12N 46°17' E 030°53'19811.2
2016-Apr-18 22:34N 43°60' E 034°16'1211.5
2016-Apr-18 21:34N 43°55' E 034°31'1111.3
2016-Apr-18 20:34N 43°51' E 034°45'1111.2
2016-Apr-18 19:33N 43°46' E 034°59'1111.3
2016-Apr-18 18:34N 43°42' E 035°14'2411.5
2016-Apr-18 16:27N 43°32' E 035°44'1211.7
2016-Apr-18 15:25N 43°28' E 035°60'1011.9
2016-Apr-18 14:34N 43°23' E 036°13'1412.0
2016-Apr-18 13:26N 43°18' E 036°30'2211.9
2016-Apr-18 11:33N 43°09' E 036°58'1411.4
2016-Apr-18 10:18N 43°04' E 037°16'811.3
2016-Apr-18 09:33N 43°00' E 037°26'18 8.5
2016-Apr-18 07:30N 42°53' E 037°48'1111.7
2016-Apr-18 06:33N 42°49' E 038°02'3812.2
2016-Apr-18 03:27N 42°34' E 038°50'1112.5
2016-Apr-18 02:33N 42°30' E 039°04'2512.3
2016-Apr-18 00:33N 42°20' E 039°34'  

Dump ship's entire track history